Time;durP1;ratioP1;P1;durP2;ratioP2;P2;SDS_P1;SDS_P2;PMS_P1;PMS_P2;Temp;Humidity;BMP_temperature;BMP_pressure;BME280_temperature;BME280_humidity;BME280_pressure;Samples;Min_cycle;Max_cycle;Signal;HPM_P1;HPM_P2
2022/09/29 00:00:36;;;;;;;1.75;0.45;;;19.50;75.70;;;;;;5103552;28;20036;-69
2022/09/29 00:03:03;;;;;;;0.30;0.30;;;19.50;75.60;;;;;;5104121;28;20052;-69
2022/09/29 00:05:29;;;;;;;7.43;1.13;;;19.50;75.60;;;;;;5102750;28;20040;-70
2022/09/29 00:07:56;;;;;;;9.82;2.05;;;19.50;75.60;;;;;;5100457;28;20113;-69
2022/09/29 00:10:23;;;;;;;0.28;0.28;;;19.50;75.50;;;;;;5100906;28;20017;-75
2022/09/29 00:12:49;;;;;;;5.53;1.02;;;19.50;75.30;;;;;;5098063;28;20016;-73
2022/09/29 00:15:16;;;;;;;1.15;0.38;;;19.50;75.30;;;;;;5102078;28;20097;-73
2022/09/29 00:17:42;;;;;;;3.42;1.25;;;19.40;75.10;;;;;;5103667;28;20030;-73
2022/09/29 00:20:09;;;;;;;1.00;0.73;;;19.40;75.00;;;;;;5099901;28;20031;-69
2022/09/29 00:22:35;;;;;;;2.50;0.55;;;19.50;75.00;;;;;;5101293;28;20028;-70
2022/09/29 00:25:02;;;;;;;6.63;1.70;;;19.40;75.00;;;;;;5104377;28;20051;-74
2022/09/29 00:27:28;;;;;;;4.53;0.90;;;19.40;74.90;;;;;;5102312;28;20012;-72
2022/09/29 00:29:55;;;;;;;1.75;1.27;;;19.50;74.80;;;;;;5103664;28;20024;-71
2022/09/29 00:32:21;;;;;;;0.25;0.13;;;19.40;74.80;;;;;;5097141;28;20028;-75
2022/09/29 00:34:49;;;;;;;6.00;0.68;;;19.40;75.00;;;;;;5099262;28;20030;-71
2022/09/29 00:37:16;;;;;;;3.38;0.90;;;19.40;75.30;;;;;;5100740;28;20103;-73
2022/09/29 00:39:42;;;;;;;3.13;1.25;;;19.40;75.40;;;;;;5104411;28;20017;-76
2022/09/29 00:42:12;;;;;;;1.60;0.73;;;19.40;75.40;;;;;;5096346;28;20103;-71
2022/09/29 00:45:13;;;;;;;2.53;0.80;;;19.40;75.50;;;;;;5101820;28;20027;-72
2022/09/29 00:47:42;;;;;;;2.08;0.57;;;19.40;75.50;;;;;;5096921;28;20044;-70
2022/09/29 00:50:18;;;;;;;3.85;0.88;;;19.40;75.50;;;;;;5099963;28;20016;-73
2022/09/29 00:52:50;;;;;;;7.57;1.15;;;19.30;75.90;;;;;;5103756;28;20527;-71
2022/09/29 00:55:43;;;;;;;2.35;0.73;;;19.30;76.30;;;;;;5102873;28;20016;-76
2022/09/29 00:58:33;;;;;;;5.95;0.80;;;19.30;76.90;;;;;;5103981;28;20027;-70
2022/09/29 01:01:00;;;;;;;1.88;0.57;;;19.30;77.20;;;;;;5100812;28;20447;-69
2022/09/29 01:03:31;;;;;;;5.40;0.98;;;19.40;77.30;;;;;;5097580;28;20095;-74
2022/09/29 01:06:04;;;;;;;4.78;0.88;;;19.30;77.20;;;;;;5103324;28;20062;-70
2022/09/29 01:09:00;;;;;;;5.47;0.77;;;19.30;77.20;;;;;;5102306;28;20019;-72
2022/09/29 01:11:28;;;;;;;;;;;19.40;77.60;;;;;;5093744;28;20057;-70
2022/09/29 01:14:02;;;;;;;3.17;0.63;;;19.30;76.80;;;;;;5098788;28;20064;-71
2022/09/29 01:16:33;;;;;;;3.67;1.10;;;19.30;76.30;;;;;;5098258;28;20043;-75
2022/09/29 01:19:01;;;;;;;1.48;0.73;;;19.30;76.00;;;;;;5104263;28;20046;-74
2022/09/29 01:21:52;;;;;;;4.03;0.60;;;19.30;76.10;;;;;;5095795;28;20043;-68
2022/09/29 01:24:40;;;;;;;3.75;0.80;;;19.20;76.40;;;;;;5097070;28;20502;-72
2022/09/29 01:27:25;;;;;;;5.20;0.50;;;19.20;76.60;;;;;;5099975;28;20486;-73
2022/09/29 01:30:09;;;;;;;3.45;1.08;;;19.20;76.70;;;;;;5098444;28;20106;-68
2022/09/29 01:32:46;;;;;;;1.00;0.70;;;19.20;76.80;;;;;;5099515;28;20035;-72
2022/09/29 01:35:26;;;;;;;0.82;0.75;;;19.20;76.70;;;;;;5104859;28;20096;-71
2022/09/29 01:38:11;;;;;;;4.95;1.00;;;19.20;76.70;;;;;;5102175;28;20023;-71
2022/09/29 01:40:50;;;;;;;2.53;0.68;;;19.20;76.70;;;;;;5104129;28;20114;-70
2022/09/29 01:43:26;;;;;;;5.18;1.30;;;19.20;76.70;;;;;;5103686;28;20428;-75
2022/09/29 01:46:08;;;;;;;7.32;1.13;;;19.20;76.50;;;;;;5098928;28;20039;-71
2022/09/29 01:48:41;;;;;;;1.85;0.95;;;19.20;76.50;;;;;;5102138;28;20024;-71
2022/09/29 01:51:14;;;;;;;2.95;0.70;;;19.10;76.40;;;;;;5093889;28;20083;-71
2022/09/29 01:53:47;;;;;;;5.05;1.58;;;19.10;76.40;;;;;;5102181;28;20020;-71
2022/09/29 01:56:37;;;;;;;1.67;0.65;;;19.10;76.40;;;;;;5098992;28;20012;-71
2022/09/29 01:59:10;;;;;;;3.17;1.10;;;19.10;76.50;;;;;;5103042;28;20068;-73
2022/09/29 02:01:40;;;;;;;1.35;0.90;;;19.10;76.60;;;;;;5103478;28;20120;-71
2022/09/29 02:04:17;;;;;;;2.83;0.80;;;19.10;76.60;;;;;;5101450;28;20386;-72
2022/09/29 02:07:09;;;;;;;9.13;3.30;;;19.10;76.70;;;;;;5097861;28;20032;-74
2022/09/29 04:34:04;;;;;;;16.73;10.57;;;18.30;80.00;;;;;;5121192;27;20433;-70
2022/09/29 04:36:30;;;;;;;12.77;9.23;;;18.40;82.00;;;;;;5102739;28;20020;-68
2022/09/29 04:38:57;;;;;;;13.35;9.05;;;18.50;82.00;;;;;;5107875;28;20051;-70
2022/09/29 04:41:23;;;;;;;13.88;5.22;;;18.50;81.70;;;;;;5111423;28;20036;-71
2022/09/29 04:43:50;;;;;;;14.10;4.97;;;18.50;81.40;;;;;;5104951;28;20082;-71
2022/09/29 04:46:16;;;;;;;11.10;5.85;;;18.50;81.00;;;;;;5087005;28;20436;-73
2022/09/29 04:48:43;;;;;;;11.13;6.43;;;18.50;80.70;;;;;;5098559;28;20031;-74
2022/09/29 04:51:09;;;;;;;7.45;5.22;;;18.60;80.40;;;;;;5089537;28;20027;-71
2022/09/29 04:54:16;;;;;;;9.40;4.75;;;18.60;80.30;;;;;;5107588;28;20088;-71
2022/09/29 04:57:22;;;;;;;8.93;4.10;;;18.60;80.10;;;;;;5085499;28;20031;-72
2022/09/29 05:00:28;;;;;;;15.38;4.57;;;18.60;80.00;;;;;;5107925;28;20378;-71
2022/09/29 05:03:34;;;;;;;6.85;3.33;;;18.60;79.90;;;;;;5105576;28;20040;-72
2022/09/29 05:06:40;;;;;;;5.35;3.15;;;18.60;79.90;;;;;;5108805;28;20027;-71
2022/09/29 05:09:47;;;;;;;13.00;3.40;;;18.60;80.10;;;;;;5106294;28;20020;-72
2022/09/29 05:12:53;;;;;;;6.47;3.95;;;18.60;80.20;;;;;;5107284;28;20145;-70
2022/09/29 05:15:59;;;;;;;19.42;4.10;;;18.60;80.30;;;;;;5105115;28;20026;-73
2022/09/29 05:19:06;;;;;;;9.70;3.60;;;18.60;80.50;;;;;;5108121;28;20478;-72
2022/09/29 05:22:12;;;;;;;12.23;3.95;;;18.60;81.00;;;;;;5112617;28;20058;-73
2022/09/29 05:25:18;;;;;;;11.23;3.97;;;18.60;81.10;;;;;;5111250;28;20025;-73
2022/09/29 05:28:24;;;;;;;12.73;3.75;;;18.60;81.50;;;;;;5112957;28;20464;-73
2022/09/29 05:31:30;;;;;;;16.60;4.10;;;18.60;81.40;;;;;;5108062;28;20047;-73
2022/09/29 05:34:36;;;;;;;15.95;5.38;;;18.60;81.10;;;;;;5098587;28;20051;-73
2022/09/29 05:37:42;;;;;;;14.05;4.32;;;18.60;81.20;;;;;;5097007;28;20027;-73
2022/09/29 05:40:48;;;;;;;8.93;4.88;;;18.60;81.20;;;;;;5099218;28;20032;-73
2022/09/29 05:43:54;;;;;;;19.77;5.18;;;18.60;81.00;;;;;;5098068;28;20042;-74
2022/09/29 05:47:00;;;;;;;6.97;3.08;;;18.60;80.80;;;;;;5095560;28;20098;-73
2022/09/29 05:50:06;;;;;;;5.47;3.45;;;18.60;81.10;;;;;;5092165;28;20031;-74
2022/09/29 05:53:12;;;;;;;12.50;4.65;;;18.70;81.40;;;;;;5094088;28;20023;-73
2022/09/29 05:56:18;;;;;;;8.07;3.22;;;18.70;81.50;;;;;;5090547;28;20105;-73
2022/09/29 05:59:24;;;;;;;6.50;3.42;;;18.70;81.60;;;;;;5090641;28;20381;-73
2022/09/29 06:02:31;;;;;;;4.57;3.08;;;18.70;82.20;;;;;;5086229;28;20480;-72
2022/09/29 06:05:37;;;;;;;9.80;3.67;;;18.80;81.70;;;;;;5091311;28;20020;-73
2022/09/29 06:08:43;;;;;;;5.57;3.42;;;18.70;81.70;;;;;;5088943;28;20107;-73
2022/09/29 06:11:49;;;;;;;10.68;4.13;;;18.80;81.70;;;;;;5093217;28;20027;-73
2022/09/29 06:14:55;;;;;;;10.88;3.92;;;18.80;81.80;;;;;;5095695;28;20024;-72
2022/09/29 06:18:01;;;;;;;14.80;3.40;;;18.80;82.20;;;;;;5099562;28;20101;-73
2022/09/29 06:21:07;;;;;;;11.10;3.05;;;18.90;81.50;;;;;;5096572;28;20022;-73
2022/09/29 06:24:14;;;;;;;15.48;4.30;;;18.90;81.70;;;;;;5094444;28;20393;-73
2022/09/29 06:27:20;;;;;;;8.85;3.47;;;18.90;81.30;;;;;;5088502;28;20031;-72
2022/09/29 06:30:26;;;;;;;8.48;3.40;;;18.90;81.10;;;;;;5095287;28;20020;-73
2022/09/29 06:32:55;;;;;;;4.78;3.70;;;19.00;80.80;;;;;;5097331;28;20067;-73
2022/09/29 06:38:06;;;;;;;8.55;2.88;;;19.00;80.40;;;;;;5097874;28;20035;-73
2022/09/29 06:40:33;;;;;;;5.13;3.40;;;19.00;80.20;;;;;;5091311;28;20035;-72
2022/09/29 06:42:59;;;;;;;16.92;3.00;;;19.00;80.10;;;;;;5093693;28;20028;-72
2022/09/29 06:45:26;;;;;;;8.93;2.55;;;19.10;80.10;;;;;;5069431;28;20051;-73
2022/09/29 06:47:59;;;;;;;8.80;2.45;;;19.10;80.00;;;;;;5091344;28;20024;-73
2022/09/29 06:50:25;;;;;;;9.63;3.10;;;19.10;79.90;;;;;;5102147;28;20069;-73
2022/09/29 06:52:52;;;;;;;7.20;2.75;;;19.10;79.90;;;;;;5089969;28;20012;-73
2022/09/29 06:55:18;;;;;;;4.00;2.78;;;19.10;79.80;;;;;;5088137;28;20364;-73
2022/09/29 06:57:45;;;;;;;8.95;2.95;;;19.20;80.00;;;;;;5090807;28;20012;-73
2022/09/29 07:00:11;;;;;;;12.30;2.97;;;19.20;80.40;;;;;;5097537;28;20025;-73
2022/09/29 07:02:38;;;;;;;10.05;3.00;;;19.20;80.60;;;;;;5083418;28;20510;-73
2022/09/29 07:05:04;;;;;;;7.53;2.95;;;19.30;80.90;;;;;;5091864;28;20012;-73
2022/09/29 07:07:31;;;;;;;6.78;3.95;;;19.30;81.10;;;;;;5092038;28;20031;-72
2022/09/29 07:09:57;;;;;;;9.82;3.17;;;19.40;80.80;;;;;;5095412;28;20033;-72
2022/09/29 07:12:25;;;;;;;13.95;3.55;;;19.40;80.40;;;;;;5095649;28;20469;-73
2022/09/29 07:14:51;;;;;;;7.95;2.67;;;19.40;79.90;;;;;;5091660;28;20024;-72
2022/09/29 07:17:17;;;;;;;8.88;3.22;;;19.50;79.60;;;;;;5090702;28;20024;-74
2022/09/29 07:19:44;;;;;;;5.32;3.28;;;19.50;79.40;;;;;;5088220;28;20542;-73
2022/09/29 07:22:10;;;;;;;7.00;2.67;;;19.50;79.10;;;;;;5101208;28;20063;-73
2022/09/29 07:24:37;;;;;;;8.77;3.33;;;19.50;78.70;;;;;;5093545;28;20045;-73
2022/09/29 07:27:03;;;;;;;12.10;3.53;;;19.50;78.10;;;;;;5089087;28;20073;-75
2022/09/29 07:29:31;;;;;;;4.80;2.80;;;19.50;78.00;;;;;;5088182;28;20047;-72
2022/09/29 07:31:59;;;;;;;6.93;1.90;;;19.50;77.90;;;;;;5082572;28;20458;-72
2022/09/29 07:34:25;;;;;;;7.03;2.05;;;19.60;77.70;;;;;;5091480;28;20016;-72
2022/09/29 07:36:52;;;;;;;7.22;3.05;;;19.60;77.50;;;;;;5090739;28;20401;-73
2022/09/29 07:39:22;;;;;;;15.20;3.33;;;19.60;77.20;;;;;;5093330;28;20024;-72
2022/09/29 07:41:50;;;;;;;6.07;2.63;;;19.70;76.90;;;;;;5086132;28;20029;-70
2022/09/29 07:44:17;;;;;;;7.07;2.10;;;19.80;75.90;;;;;;5098187;28;20095;-73
2022/09/29 07:46:43;;;;;;;4.82;1.90;;;19.80;75.80;;;;;;5086486;28;20432;-72
2022/09/29 07:49:10;;;;;;;6.80;2.08;;;19.90;75.80;;;;;;5091118;28;20034;-72
2022/09/29 07:51:36;;;;;;;5.28;2.13;;;19.90;75.40;;;;;;5099851;28;20104;-72
2022/09/29 07:54:06;;;;;;;6.10;1.95;;;19.90;75.10;;;;;;5085671;28;20541;-73
2022/09/29 07:56:34;;;;;;;6.97;2.53;;;20.00;74.60;;;;;;5092194;28;20027;-71
2022/09/29 07:59:01;;;;;;;4.47;1.88;;;20.10;74.40;;;;;;5089823;28;20061;-72
2022/09/29 08:01:28;;;;;;;3.88;2.13;;;20.10;73.90;;;;;;5094872;28;20040;-73
2022/09/29 08:03:55;;;;;;;5.55;3.15;;;20.20;73.90;;;;;;5083763;28;20025;-73
2022/09/29 08:06:23;;;;;;;8.07;2.80;;;20.20;73.70;;;;;;5092474;28;20461;-72
2022/09/29 08:08:50;;;;;;;8.23;1.77;;;20.30;73.60;;;;;;5086621;28;20016;-72
2022/09/29 08:11:19;;;;;;;10.98;3.05;;;20.30;73.20;;;;;;5088670;28;20030;-73
2022/09/29 08:13:47;;;;;;;6.40;2.17;;;20.30;72.90;;;;;;5093812;28;20032;-72
2022/09/29 08:16:14;;;;;;;7.10;2.20;;;20.40;72.80;;;;;;5088905;28;20125;-74
2022/09/29 08:18:43;;;;;;;5.15;2.03;;;20.40;72.50;;;;;;5089852;28;20429;-73
2022/09/29 08:21:11;;;;;;;9.95;2.50;;;20.50;72.50;;;;;;5089202;28;20020;-74
2022/09/29 08:23:40;;;;;;;7.68;2.25;;;20.50;72.50;;;;;;5094774;28;20028;-73
2022/09/29 08:26:09;;;;;;;4.78;2.35;;;20.50;71.60;;;;;;5088521;28;20023;-73
2022/09/29 08:28:37;;;;;;;5.07;2.15;;;20.60;70.90;;;;;;5096153;28;20399;-72
2022/09/29 08:31:18;;;;;;;18.75;3.05;;;20.60;70.60;;;;;;5091261;28;20406;-71
2022/09/29 08:33:45;;;;;;;4.43;2.35;;;20.70;70.40;;;;;;5089517;28;20044;-72
2022/09/29 08:36:15;;;;;;;8.10;2.22;;;20.80;70.10;;;;;;5089879;28;20028;-72
2022/09/29 08:38:46;;;;;;;4.50;2.63;;;20.80;69.70;;;;;;5089579;28;20128;-72
2022/09/29 08:41:54;;;;;;;4.28;2.28;;;20.80;68.70;;;;;;5093580;28;20070;-71
2022/09/29 08:44:25;;;;;;;5.72;2.10;;;20.90;68.20;;;;;;5078915;28;20036;-72
2022/09/29 08:46:56;;;;;;;7.68;4.07;;;21.00;68.30;;;;;;5089152;28;20019;-73
2022/09/29 08:49:31;;;;;;;17.27;4.15;;;21.00;68.30;;;;;;5090015;28;20036;-72
2022/09/29 08:52:09;;;;;;;4.45;2.00;;;21.10;68.70;;;;;;5089343;28;20016;-72
2022/09/29 08:54:48;;;;;;;14.32;3.45;;;21.20;68.10;;;;;;5089371;28;20027;-71
2022/09/29 08:57:17;;;;;;;8.13;2.45;;;21.20;67.70;;;;;;5088923;28;20012;-72
2022/09/29 08:59:58;;;;;;;5.03;2.70;;;21.30;67.40;;;;;;5093558;28;20012;-73
2022/09/29 09:03:06;;;;;;;6.03;2.75;;;21.30;67.70;;;;;;5090967;28;20062;-73
2022/09/29 09:05:44;;;;;;;4.78;2.10;;;21.40;67.60;;;;;;5063317;28;20036;-71
2022/09/29 09:08:22;;;;;;;5.13;2.30;;;21.50;67.10;;;;;;5090561;28;20039;-71
2022/09/29 09:11:27;;;;;;;3.30;2.13;;;21.60;66.90;;;;;;5092836;28;20025;-72
2022/09/29 09:13:57;;;;;;;7.57;1.92;;;21.60;66.30;;;;;;5097894;28;20040;-72
2022/09/29 09:16:29;;;;;;;5.00;2.53;;;21.70;66.10;;;;;;5092328;28;20018;-71
2022/09/29 09:19:20;;;;;;;6.70;3.25;;;21.70;66.30;;;;;;5092220;28;20020;-72
2022/09/29 09:21:54;;;;;;;8.57;3.03;;;21.80;67.20;;;;;;5096034;28;20032;-72
2022/09/29 09:24:56;;;;;;;8.00;2.95;;;21.80;67.80;;;;;;5097409;28;20526;-71
2022/09/29 09:27:38;;;;;;;9.60;3.53;;;21.90;67.90;;;;;;5099486;28;20489;-72
2022/09/29 09:30:15;;;;;;;12.32;3.22;;;21.90;68.30;;;;;;5091989;28;20533;-73
2022/09/29 09:32:49;;;;;;;4.90;2.67;;;22.00;68.40;;;;;;5091725;28;20089;-73
2022/09/29 09:35:44;;;;;;;11.50;3.53;;;22.10;68.50;;;;;;5094783;28;20027;-71
2022/09/29 09:38:18;;;;;;;6.43;2.67;;;22.10;68.20;;;;;;5094738;28;20064;-71
2022/09/29 09:40:52;;;;;;;6.77;2.83;;;22.20;67.80;;;;;;5098326;28;20461;-72
2022/09/29 09:43:49;;;;;;;6.85;2.60;;;22.20;67.50;;;;;;5094100;28;20505;-71
2022/09/29 09:46:22;;;;;;;5.85;2.50;;;22.30;67.40;;;;;;5079258;28;20404;-71
2022/09/29 09:49:13;;;;;;;6.25;2.63;;;22.30;67.20;;;;;;5091509;28;20020;-71
2022/09/29 09:52:04;;;;;;;5.68;3.05;;;22.30;67.30;;;;;;5091355;28;20114;-71
2022/09/29 09:54:37;;;;;;;9.57;2.65;;;22.40;67.20;;;;;;5095719;28;20542;-72
2022/09/29 09:57:22;;;;;;;6.63;2.60;;;22.40;67.30;;;;;;5094707;28;20016;-71
2022/09/29 10:00:09;;;;;;;4.40;2.20;;;22.40;67.00;;;;;;5096174;28;20051;-72
2022/09/29 10:02:45;;;;;;;3.97;2.17;;;22.50;66.80;;;;;;5094540;28;20044;-71
2022/09/29 12:30:19;;;;;;;6.85;1.77;;;23.10;60.50;;;;;;5064299;28;20461;-71
2022/09/29 12:33:19;;;;;;;11.88;2.00;;;23.50;61.20;;;;;;5041685;28;20025;-72
2022/09/29 12:36:49;;;;;;;4.13;1.52;;;23.50;60.60;;;;;;5038310;28;20115;-71
2022/09/29 12:39:47;;;;;;;3.75;1.60;;;23.60;59.90;;;;;;5044049;28;20110;-73
2022/09/29 12:42:42;;;;;;;6.07;2.53;;;23.70;58.60;;;;;;5037649;28;20025;-71
2022/09/29 12:45:31;;;;;;;4.63;3.58;;;23.80;57.50;;;;;;5038844;28;20025;-71
2022/09/29 12:48:23;;;;;;;3.78;2.00;;;23.80;57.40;;;;;;5044936;28;20021;-71
2022/09/29 12:51:10;;;;;;;6.88;2.10;;;23.90;57.80;;;;;;5040106;28;20090;-72
2022/09/29 12:53:39;;;;;;;5.47;2.33;;;23.90;58.00;;;;;;5040861;28;20033;-71
2022/09/29 12:56:08;;;;;;;8.23;2.35;;;23.90;57.90;;;;;;5039942;28;20029;-72
2022/09/29 12:58:46;;;;;;;13.98;3.00;;;24.00;58.70;;;;;;5039768;28;20026;-72
2022/09/29 13:01:20;;;;;;;13.02;2.65;;;24.10;59.60;;;;;;5040684;28;20013;-71
2022/09/29 13:04:18;;;;;;;9.70;2.40;;;24.10;60.20;;;;;;5041100;28;20029;-71
2022/09/29 13:07:06;;;;;;;6.35;3.08;;;24.20;60.60;;;;;;5037387;28;20036;-72
2022/09/29 13:09:59;;;;;;;11.23;3.42;;;24.20;60.60;;;;;;5038311;28;20108;-73
2022/09/29 13:13:07;;;;;;;8.13;2.80;;;24.30;60.60;;;;;;5042725;28;20029;-72
2022/09/29 13:16:00;;;;;;;5.07;3.60;;;24.30;60.30;;;;;;5037665;28;20116;-72
2022/09/29 13:18:45;;;;;;;17.27;3.05;;;24.20;60.00;;;;;;5044528;28;20042;-71
2022/09/29 13:21:44;;;;;;;8.63;2.65;;;24.20;59.90;;;;;;5046200;28;20556;-71
2022/09/29 13:24:10;;;;;;;5.47;2.53;;;24.20;60.10;;;;;;5039599;28;20037;-73
2022/09/29 13:26:56;;;;;;;10.95;5.18;;;24.20;60.40;;;;;;5039909;28;20054;-72
2022/09/29 13:29:26;;;;;;;9.50;2.72;;;24.10;60.90;;;;;;5022667;28;20136;-73
2022/09/29 13:31:55;;;;;;;4.20;2.45;;;24.10;61.30;;;;;;5031261;28;20490;-73
2022/09/29 13:34:33;;;;;;;4.30;2.42;;;24.10;61.60;;;;;;5030589;28;20108;-72
2022/09/29 13:37:28;;;;;;;8.55;3.47;;;24.10;61.60;;;;;;5024435;28;20392;-71
2022/09/29 13:39:59;;;;;;;5.65;2.25;;;24.10;62.00;;;;;;5023123;28;20050;-72
2022/09/29 13:42:47;;;;;;;10.93;2.72;;;24.10;62.10;;;;;;5029234;28;20510;-73
2022/09/29 13:45:20;;;;;;;7.47;3.03;;;24.10;62.20;;;;;;5028682;28;20088;-72
2022/09/29 13:47:54;;;;;;;5.57;2.72;;;24.10;62.40;;;;;;5025916;28;20025;-72
2022/09/29 13:50:48;;;;;;;8.40;2.92;;;24.10;62.70;;;;;;5028990;28;20035;-72
2022/09/29 13:53:31;;;;;;;7.68;2.55;;;24.00;63.00;;;;;;5026541;28;20033;-73
2022/09/29 13:56:04;;;;;;;7.60;2.63;;;24.00;64.00;;;;;;5025656;28;20021;-71
2022/09/29 13:59:00;;;;;;;7.35;2.92;;;23.90;64.20;;;;;;5028353;28;20041;-72
2022/09/29 14:01:35;;;;;;;12.75;3.30;;;23.90;64.50;;;;;;5026539;28;20143;-72
2022/09/29 14:04:39;;;;;;;7.70;2.42;;;23.90;64.60;;;;;;5030876;28;20032;-75
2022/09/29 14:07:07;;;;;;;4.40;1.80;;;23.80;64.60;;;;;;5024359;28;20044;-72
2022/09/29 14:09:45;;;;;;;3.28;2.45;;;23.80;64.60;;;;;;5027210;28;20411;-72
2022/09/29 14:12:25;;;;;;;6.10;2.38;;;23.70;64.50;;;;;;5031487;28;20080;-71
2022/09/29 14:14:58;;;;;;;6.50;2.20;;;23.70;64.70;;;;;;5024981;28;20435;-72
2022/09/29 14:17:35;;;;;;;12.60;4.00;;;23.60;65.10;;;;;;5026731;28;20038;-71
2022/09/29 14:20:16;;;;;;;7.75;3.25;;;23.60;65.30;;;;;;5024353;28;20381;-72
2022/09/29 14:22:45;;;;;;;6.15;2.20;;;23.50;65.60;;;;;;5026558;28;20026;-73
2022/09/29 14:25:14;;;;;;;6.35;3.63;;;23.40;65.90;;;;;;5031210;28;20091;-71
2022/09/29 14:27:57;;;;;;;8.40;2.00;;;23.40;66.20;;;;;;5024259;28;20064;-72
2022/09/29 14:30:34;;;;;;;5.60;2.70;;;23.30;66.50;;;;;;5045684;28;20044;-73
2022/09/29 14:33:16;;;;;;;7.63;1.92;;;23.30;66.80;;;;;;5046024;28;20061;-72
2022/09/29 14:35:50;;;;;;;12.07;2.25;;;23.30;67.00;;;;;;5048531;28;20021;-74
2022/09/29 14:38:42;;;;;;;11.93;2.53;;;23.20;67.20;;;;;;5050311;28;20050;-75
2022/09/29 14:41:09;;;;;;;6.90;2.33;;;23.20;67.70;;;;;;5046454;28;20075;-73
2022/09/29 14:43:40;;;;;;;6.90;2.25;;;23.20;68.00;;;;;;5049750;28;20060;-74
2022/09/29 14:52:33;;;;;;;8.30;2.22;;;23.10;68.50;;;;;;5046053;28;20826;-77
2022/09/29 14:55:14;;;;;;;6.00;1.88;;;23.10;68.70;;;;;;5042866;28;20028;-76
2022/09/29 14:57:59;;;;;;;10.15;2.67;;;23.00;69.00;;;;;;5044637;28;20389;-76
2022/09/29 15:00:50;;;;;;;7.13;2.47;;;23.00;69.10;;;;;;5047608;28;20178;-73
2022/09/29 15:03:34;;;;;;;4.85;1.85;;;23.00;69.20;;;;;;5050734;28;20557;-73
2022/09/29 15:06:10;;;;;;;7.75;2.78;;;23.00;69.30;;;;;;5047867;28;20021;-73
2022/09/29 15:08:38;;;;;;;15.40;8.18;;;22.90;69.30;;;;;;5044069;28;20504;-72
2022/09/29 15:11:27;;;;;;;12.73;5.85;;;22.90;69.30;;;;;;5047132;28;20028;-75
2022/09/29 15:13:58;;;;;;;8.38;4.22;;;22.90;70.20;;;;;;5046884;28;20028;-72
2022/09/29 15:16:53;;;;;;;9.75;3.95;;;22.80;71.00;;;;;;5049940;28;20033;-73
2022/09/29 15:20:06;;;;;;;14.77;6.65;;;22.80;71.10;;;;;;5040588;28;20035;-73
2022/09/29 15:22:58;;;;;;;13.43;7.57;;;22.80;71.40;;;;;;5046471;28;20090;-74
2022/09/29 15:25:32;;;;;;;20.63;6.75;;;22.80;71.80;;;;;;5044824;28;20025;-73
2022/09/29 15:28:24;;;;;;;12.32;4.85;;;22.80;72.50;;;;;;5044955;28;20043;-73
2022/09/29 15:30:53;;;;;;;11.05;2.97;;;22.70;71.60;;;;;;5044857;28;20024;-75
2022/09/29 15:33:25;;;;;;;7.93;2.70;;;22.70;71.20;;;;;;5045549;28;20453;-72
2022/09/29 15:36:16;;;;;;;8.90;2.10;;;22.70;71.10;;;;;;5044512;28;20098;-75
2022/09/29 15:38:42;;;;;;;4.65;1.65;;;22.60;70.90;;;;;;5040305;28;20049;-71
2022/09/29 15:41:12;;;;;;;9.25;2.53;;;22.60;71.50;;;;;;5043323;28;20056;-73
2022/09/29 15:43:55;;;;;;;6.22;2.63;;;22.60;70.90;;;;;;5044522;28;20095;-73
2022/09/29 15:46:38;;;;;;;11.93;5.47;;;22.60;71.10;;;;;;5036745;28;20374;-74
2022/09/29 15:49:14;;;;;;;17.40;9.68;;;22.50;71.70;;;;;;5046699;28;20053;-73
2022/09/29 15:51:43;;;;;;;16.58;8.55;;;22.50;72.80;;;;;;5041091;28;20028;-72
2022/09/29 15:54:12;;;;;;;12.20;6.45;;;22.50;73.00;;;;;;5049501;28;20025;-72
2022/09/29 15:59:50;;;;;;;11.77;3.15;;;22.50;72.80;;;;;;5041755;28;20166;-73
2022/09/29 16:02:31;;;;;;;10.13;2.85;;;22.50;72.70;;;;;;5041875;28;20060;-73
2022/09/29 16:05:02;;;;;;;8.82;3.97;;;22.40;72.60;;;;;;5044595;28;20094;-74
2022/09/29 16:07:38;;;;;;;10.18;2.50;;;22.40;72.60;;;;;;5047900;28;20528;-70
2022/09/29 16:10:27;;;;;;;7.30;2.28;;;22.40;72.60;;;;;;5046542;28;20041;-73
2022/09/29 16:12:57;;;;;;;9.20;2.92;;;22.40;72.70;;;;;;5043496;28;20079;-73
2022/09/29 16:15:37;;;;;;;6.82;1.95;;;22.40;72.80;;;;;;5046546;28;20025;-74
2022/09/29 16:18:19;;;;;;;10.95;2.50;;;22.30;72.90;;;;;;5047016;28;20033;-71
2022/09/29 16:20:47;;;;;;;6.15;2.38;;;22.30;73.10;;;;;;5041959;28;20029;-71
2022/09/29 16:23:19;;;;;;;5.00;2.38;;;22.20;73.00;;;;;;5044721;28;20032;-73
2022/09/29 16:26:06;;;;;;;14.85;4.95;;;22.20;73.10;;;;;;5045947;28;20024;-73
2022/09/29 16:28:35;;;;;;;10.80;3.10;;;22.20;73.40;;;;;;5048494;28;20045;-74
2022/09/29 16:31:31;;;;;;;9.05;3.08;;;22.10;74.20;;;;;;5044534;28;20021;-71
2022/09/29 16:33:59;;;;;;;13.65;3.65;;;22.10;74.40;;;;;;5034847;28;20120;-69
2022/09/29 16:36:35;;;;;;;12.52;2.60;;;22.10;74.40;;;;;;5040723;28;20379;-71
2022/09/29 16:39:04;;;;;;;18.10;12.55;;;22.10;74.80;;;;;;5043343;28;20075;-74
2022/09/29 16:41:36;;;;;;;25.17;15.10;;;22.10;75.30;;;;;;5043196;28;20028;-70
2022/09/29 16:44:08;;;;;;;31.70;16.63;;;22.10;75.40;;;;;;5043671;28;20033;-70
2022/09/29 16:46:43;;;;;;;29.73;12.20;;;22.00;75.20;;;;;;5041250;28;20350;-71
2022/09/29 16:49:27;;;;;;;17.05;9.88;;;22.00;75.10;;;;;;5048354;28;20145;-73
2022/09/29 16:51:56;;;;;;;14.18;7.78;;;22.00;75.00;;;;;;5040638;28;20025;-70
2022/09/29 16:54:39;;;;;;;17.27;8.07;;;22.00;75.00;;;;;;5047121;28;20028;-74
2022/09/29 16:57:17;;;;;;;14.52;6.57;;;22.00;75.30;;;;;;5048564;28;20151;-71
2022/09/29 16:59:45;;;;;;;12.25;6.68;;;22.00;75.60;;;;;;5044262;28;20032;-71
2022/09/29 17:02:12;;;;;;;10.88;3.55;;;22.00;75.60;;;;;;5045873;28;20159;-71
2022/09/29 17:04:39;;;;;;;4.95;3.15;;;21.90;75.10;;;;;;5042062;28;20097;-70
2022/09/29 17:07:07;;;;;;;5.32;2.70;;;22.00;75.10;;;;;;5048624;28;20061;-73
2022/09/29 17:09:33;;;;;;;12.48;4.45;;;21.90;74.90;;;;;;5045814;28;20383;-77
2022/09/29 17:12:00;;;;;;;19.48;8.15;;;21.90;75.00;;;;;;5060704;28;20384;-73
2022/09/29 17:14:29;;;;;;;15.70;8.52;;;21.90;75.50;;;;;;5054128;28;20024;-75
2022/09/29 17:16:57;;;;;;;9.48;6.53;;;21.80;75.40;;;;;;5055903;28;20017;-72
2022/09/29 17:19:25;;;;;;;10.68;4.32;;;21.80;75.40;;;;;;5053549;28;20033;-74
2022/09/29 17:21:53;;;;;;;10.63;4.50;;;21.80;75.40;;;;;;5051443;28;20029;-73
2022/09/29 17:24:20;;;;;;;7.72;4.15;;;21.80;75.30;;;;;;5053819;28;20037;-72
2022/09/29 17:29:31;;;;;;;7.60;3.60;;;21.70;75.50;;;;;;5053292;28;20064;-72
2022/09/29 17:32:01;;;;;;;4.57;2.40;;;21.60;75.80;;;;;;5054768;28;20901;-72
2022/09/29 17:34:28;;;;;;;9.32;3.53;;;21.60;76.00;;;;;;5053074;28;20016;-73
2022/09/29 17:37:00;;;;;;;14.02;3.55;;;21.60;76.20;;;;;;5051571;28;20471;-72
2022/09/29 17:39:28;;;;;;;11.02;4.40;;;21.60;77.10;;;;;;5047678;28;20041;-72
2022/09/29 17:41:54;;;;;;;14.98;3.40;;;21.60;76.90;;;;;;5051008;28;20033;-72
2022/09/29 17:44:20;;;;;;;9.60;3.67;;;21.60;77.10;;;;;;5059107;28;20096;-72
2022/09/29 17:46:47;;;;;;;16.52;4.45;;;21.50;77.80;;;;;;5051756;28;20028;-72
2022/09/29 17:49:15;;;;;;;12.20;3.45;;;21.60;78.70;;;;;;5054702;28;20590;-71
2022/09/29 17:51:41;;;;;;;8.88;3.88;;;21.50;78.40;;;;;;5057124;28;20484;-72
2022/09/29 17:54:08;;;;;;;18.10;3.53;;;21.50;78.00;;;;;;5053361;28;20107;-72
2022/09/29 17:56:42;;;;;;;15.30;4.18;;;21.50;77.70;;;;;;5049460;28;20032;-72
2022/09/29 17:59:09;;;;;;;9.50;3.78;;;21.50;77.90;;;;;;5047317;28;20172;-72
2022/09/29 18:01:37;;;;;;;13.18;7.53;;;21.50;78.10;;;;;;5049608;28;20076;-72
2022/09/29 20:26:01;;;;;;;10.27;4.53;;;20.30;83.60;;;;;;5148962;27;20359;-77
2022/09/29 20:28:30;;;;;;;5.80;3.25;;;20.40;83.70;;;;;;5129775;27;20117;-75
2022/09/29 20:30:58;;;;;;;7.85;3.42;;;20.40;83.50;;;;;;5149184;27;20069;-76
2022/09/29 20:33:26;;;;;;;7.90;3.05;;;20.40;83.20;;;;;;5149067;27;20466;-77
2022/09/29 20:35:52;;;;;;;4.32;2.13;;;20.40;83.00;;;;;;5147062;27;20358;-72
2022/09/29 20:38:19;;;;;;;6.97;3.33;;;20.50;82.80;;;;;;5147976;27;20062;-71
2022/09/29 20:40:47;;;;;;;8.90;3.38;;;20.50;82.70;;;;;;5148596;27;20023;-76
2022/09/29 20:43:14;;;;;;;10.45;3.95;;;20.50;82.40;;;;;;5147229;27;20023;-71
2022/09/29 20:45:41;;;;;;;16.30;4.05;;;20.50;82.30;;;;;;5148686;27;20477;-71
2022/09/29 20:48:09;;;;;;;9.52;3.72;;;20.50;82.20;;;;;;5146090;27;20019;-75
2022/09/29 20:50:36;;;;;;;16.20;6.32;;;20.50;82.20;;;;;;5148166;27;20030;-75
2022/09/29 20:53:03;;;;;;;11.80;3.75;;;20.50;82.20;;;;;;5146463;27;20034;-76
2022/09/29 20:55:30;;;;;;;17.10;4.38;;;20.50;82.40;;;;;;5148473;27;20023;-76
2022/09/29 20:57:59;;;;;;;13.20;4.32;;;20.50;82.70;;;;;;5147386;27;20025;-71
2022/09/29 21:00:38;;;;;;;6.68;2.97;;;20.50;82.70;;;;;;5147695;27;20465;-71
2022/09/29 21:03:08;;;;;;;8.35;2.50;;;20.50;82.50;;;;;;5126346;27;20518;-70
2022/09/29 21:05:44;;;;;;;13.55;4.80;;;20.50;82.10;;;;;;5110235;27;20026;-70